Chama, NM

4:07 AM MDT on October 20, 2014 (GMT -0600)
Pagosa Springs | Change Station
CLOSE
Current Station
Airport
Location: Pagosa Springs,
Elevation: 7657 ft
Nearby Weather Stations

Elev 7657 ft 37.29 °N, 107.06 °W | Updated 12 minutes ago

Clear
Clear
39 °F
Feels Like 39 °F
N
0
Wind Variable Wind from North

Today
High -- | Low -- °F
--% Chance of Precip.
Yesterday
High -- | Low -- °F
Precip. -- in
7:18 AM 6:23 PM
Waning Crescent, 12% visible
Pressure 30.27 in
Visibility 10.0 miles
Clouds Clear
Dew Point 39 °F
Humidity 100%
Rainfall 0.00 in
Snow Depth Not available.
UV 0 out of 12
Pollen 2.70 out of 12
Air Quality Not available.
Flu Activity Sporadic
METAR KPSO 200955Z AUTO 00000KT 10SM CLR 04/04 A3027 RMK AO2 T00380038

More Conditions Fewer Conditions

Pressure 30.27 in
Visibility 10.0 miles
Clouds Clear
Dew Point 39 °F
Humidity 100%
Rainfall 0.00 in
Snow Depth Not available.
UV 0 out of 12
Pollen 2.70 out of 12
Air Quality Not available.
Flu Activity Sporadic
METAR KPSO 200955Z AUTO 00000KT 10SM CLR 04/04 A3027 RMK AO2 T00380038

More Conditions Fewer Conditions

10-Day Weather Forecast

Almanac

Astronomy

Oct. 20, 2014 Rise Set
Actual Time 7:18 AM MDT 6:23 PM MDT
Civil Twilight 6:52 AM MDT 6:49 PM MDT
Nautical Twilight 6:22 AM MDT 7:19 PM MDT
Astronomical Twilight 5:52 AM MDT 7:49 PM MDT
Moon 4:14 AM MDT 4:43 PM MDT
Length of Visible Light 11h 57m
Length of Day
11h 04m
Waning Crescent, 12% of the Moon is Illuminated
Today
Waning Crescent
Oct 23
New
Oct 30
First Quarter
Nov 6
Full
Nov 14
Last Quarter

Today's Extremes

State Highs State Lows

Community

WunderPhotos

Upload Photos

1,763,326 photos uploaded!

Nearby

Snow Depth

Station Depth Elevation
Chamita 0 in 8400 ft
Hopewell 0 in 10000 ft
Bateman 0 in 9300 ft
Senorita Divide #2 0 in 8600 ft
Quemazon 1 in 9500 ft

Earthquake Activity

City Distance Mag. Time & Date
Trinidad, Colorado 101 miles 2.5 10:01 PM MDT
2014-10-19
Trinidad, Colorado 94 miles 3.8 11:01 AM MDT
2014-10-17
Minimum magnitude displayed is 2.5.

Coastal Water Temperatures

Place Temperature
No Stations Reporting

Nearby Weather Stations